Wallace, South Dakota
Current Conditions -  °F | °C
As of 7:53 AM on Monday 22 Dec 2014 (Local Time) from KATY Reporting Station
Overcast Overcast  
Wind Chill: 30°   Ceiling: 300
Heat Index: 36°   Visibility: 8mi
Dew Point: 35°   Wind: 7mph
Humidity: 97%   Direction: 140°SE
Pressure: 29.43"   Gusts: NA
Location:  45.09°N, 97.48°W
Report Text: KATY 221353Z AUTO 14006KT 8SM OVC003 02/02 A2943 RMK AO2 UPE36 SLP979 P0000 T00220017
Loading
Personal Weather Stations






























Interactive Weather Map New forecast layout! Learn more

10-Day Weather Forecast

Advertisements
Track Severe Weather on mobile